createdAt,value
2018-08-13T00:01:18.168Z,57.90
2018-08-13T00:03:46.412Z,57.60
2018-08-13T00:06:14.768Z,57.60
2018-08-13T00:08:43.040Z,57.50
2018-08-13T00:11:11.362Z,57.50
2018-08-13T00:13:39.622Z,57.50
2018-08-13T00:16:08.002Z,57.60
2018-08-13T00:18:36.256Z,58.00
2018-08-13T00:21:04.595Z,58.00
2018-08-13T00:23:32.816Z,58.10
2018-08-13T00:26:01.084Z,58.30
2018-08-13T00:28:29.307Z,58.30
2018-08-13T00:30:57.592Z,58.30
2018-08-13T00:33:25.804Z,59.00
2018-08-13T00:35:54.066Z,59.10
2018-08-13T00:38:22.308Z,60.30
2018-08-13T00:40:50.682Z,61.90
2018-08-13T00:43:18.913Z,62.30
2018-08-13T00:45:47.228Z,62.30
2018-08-13T00:48:15.520Z,62.60
2018-08-13T00:50:43.794Z,62.80
2018-08-13T00:53:12.624Z,63.90
2018-08-13T00:55:40.866Z,63.70
2018-08-13T00:58:09.090Z,63.00
2018-08-13T01:00:37.366Z,62.60
2018-08-13T01:03:06.679Z,62.20
2018-08-13T01:05:35.653Z,62.10
2018-08-13T01:08:03.897Z,62.60
2018-08-13T01:10:32.200Z,63.60
2018-08-13T01:13:00.436Z,65.30
2018-08-13T01:15:28.664Z,66.70
2018-08-13T01:17:56.880Z,68.30
2018-08-13T01:20:25.122Z,69.40
2018-08-13T01:22:53.381Z,69.90
2018-08-13T01:25:21.617Z,68.90
2018-08-13T01:27:49.869Z,68.80
2018-08-13T01:30:19.233Z,68.80
2018-08-13T01:32:47.469Z,68.80
2018-08-13T01:35:15.728Z,69.90
2018-08-13T01:37:43.948Z,71.30
2018-08-13T01:40:12.884Z,70.70
2018-08-13T01:42:41.118Z,70.40
2018-08-13T01:45:10.919Z,71.50
2018-08-13T01:47:39.575Z,70.90
2018-08-13T01:50:09.669Z,71.00
2018-08-13T01:52:37.903Z,70.80
2018-08-13T01:55:07.649Z,70.90
2018-08-13T01:57:35.893Z,69.80
2018-08-13T02:00:07.319Z,69.40
2018-08-13T02:02:35.568Z,69.20
2018-08-13T02:05:04.293Z,68.90
2018-08-13T02:07:32.549Z,68.40
2018-08-13T02:10:00.815Z,68.20
2018-08-13T02:12:29.105Z,67.40
2018-08-13T02:14:57.322Z,68.00
2018-08-13T02:17:25.544Z,68.70
2018-08-13T02:19:53.768Z,67.90
2018-08-13T02:22:22.012Z,67.90
2018-08-13T02:24:50.281Z,69.20
2018-08-13T02:27:18.525Z,70.50
2018-08-13T02:29:46.836Z,71.30
2018-08-13T02:32:15.129Z,71.90
2018-08-13T02:34:43.354Z,71.60
2018-08-13T02:37:11.623Z,70.30
2018-08-13T02:39:39.846Z,70.90
2018-08-13T02:42:08.112Z,71.00
2018-08-13T02:44:36.347Z,69.60
2018-08-13T02:47:04.593Z,70.20
2018-08-13T02:49:32.806Z,70.00
2018-08-13T02:52:01.041Z,70.30
2018-08-13T02:54:29.276Z,70.20
2018-08-13T02:56:57.520Z,70.20
2018-08-13T02:59:25.752Z,70.20
2018-08-13T03:01:53.986Z,70.10
2018-08-13T03:04:22.224Z,70.00
2018-08-13T03:06:50.513Z,69.90
2018-08-13T03:09:18.743Z,69.20
2018-08-13T03:11:47.013Z,69.30
2018-08-13T03:14:15.253Z,68.70
2018-08-13T03:16:43.657Z,68.60
2018-08-13T03:19:12.723Z,68.10
2018-08-13T03:21:40.977Z,69.20
2018-08-13T03:24:09.187Z,68.50
2018-08-13T03:26:37.400Z,68.80
2018-08-13T03:29:05.660Z,69.00
2018-08-13T03:31:33.951Z,68.60
2018-08-13T03:34:02.230Z,68.40
2018-08-13T03:36:30.489Z,68.20
2018-08-13T03:38:58.761Z,68.30
2018-08-13T03:41:27.052Z,68.00
2018-08-13T03:43:55.400Z,68.00
2018-08-13T03:46:23.681Z,68.20
2018-08-13T03:48:51.934Z,67.80
2018-08-13T03:51:20.177Z,67.80
2018-08-13T03:53:48.500Z,67.80
2018-08-13T03:56:16.701Z,67.80
2018-08-13T03:58:44.937Z,67.80
2018-08-13T04:01:13.206Z,67.90
2018-08-13T04:03:41.452Z,67.90
2018-08-13T04:06:09.709Z,67.80
2018-08-13T04:08:38.237Z,68.60
2018-08-13T04:11:06.577Z,68.30
2018-08-13T04:13:34.955Z,68.40
2018-08-13T04:16:03.210Z,68.20
2018-08-13T04:18:31.457Z,68.50
2018-08-13T04:20:59.708Z,68.20
2018-08-13T04:23:27.928Z,68.30
2018-08-13T04:25:56.163Z,68.00
2018-08-13T04:28:24.401Z,68.60
2018-08-13T04:30:52.645Z,68.60
2018-08-13T04:33:20.865Z,68.50
2018-08-13T04:35:49.124Z,68.30
2018-08-13T04:38:17.356Z,68.30
2018-08-13T04:40:45.611Z,68.20
2018-08-13T04:43:13.876Z,68.40
2018-08-13T04:45:42.112Z,68.30
2018-08-13T04:48:10.431Z,68.60
2018-08-13T04:50:38.699Z,68.50
2018-08-13T04:53:06.931Z,68.80
2018-08-13T04:55:35.172Z,68.80
2018-08-13T04:58:03.489Z,68.70
2018-08-13T05:00:31.764Z,68.70
2018-08-13T05:02:59.999Z,68.80
2018-08-13T05:05:28.252Z,68.70
2018-08-13T05:07:56.529Z,68.70
2018-08-13T05:10:24.745Z,68.40
2018-08-13T05:12:52.994Z,68.50
2018-08-13T05:15:21.228Z,68.70
2018-08-13T05:17:49.526Z,68.80
2018-08-13T05:20:17.758Z,68.90
2018-08-13T05:22:46.897Z,68.90
2018-08-13T05:25:15.133Z,68.90
2018-08-13T05:27:44.757Z,69.00
2018-08-13T05:30:13.657Z,69.20
2018-08-13T05:32:41.920Z,69.10
2018-08-13T05:35:10.336Z,69.00
2018-08-13T05:37:38.981Z,69.00
2018-08-13T05:40:08.961Z,69.60
2018-08-13T05:42:37.282Z,69.30
2018-08-13T05:45:06.830Z,69.30
2018-08-13T05:47:35.061Z,69.40
2018-08-13T05:50:03.334Z,69.40
2018-08-13T05:52:31.561Z,69.40
2018-08-13T05:54:59.850Z,69.60
2018-08-13T05:57:28.146Z,69.20
2018-08-13T05:59:56.530Z,69.10
2018-08-13T06:02:24.800Z,69.20
2018-08-13T06:04:53.074Z,69.10
2018-08-13T06:07:21.353Z,69.00
2018-08-13T06:09:49.585Z,69.20
2018-08-13T06:12:17.813Z,69.20
2018-08-13T06:14:46.077Z,69.30
2018-08-13T06:17:14.372Z,69.50
2018-08-13T06:19:42.713Z,69.70
2018-08-13T06:22:10.979Z,69.40
2018-08-13T06:24:39.238Z,69.10
2018-08-13T06:27:07.531Z,69.10
2018-08-13T06:29:35.771Z,69.40
2018-08-13T06:32:04.098Z,68.10
2018-08-13T06:34:32.350Z,70.80
2018-08-13T06:37:00.641Z,68.40
2018-08-13T06:39:29.698Z,68.00
2018-08-13T06:41:58.305Z,67.80
2018-08-13T06:44:26.573Z,67.40
2018-08-13T06:46:54.814Z,67.40
2018-08-13T06:49:23.084Z,66.10
2018-08-13T06:51:51.380Z,66.80
2018-08-13T06:54:19.616Z,65.70
2018-08-13T06:56:47.856Z,66.60
2018-08-13T06:59:16.143Z,67.00
2018-08-13T07:01:50.816Z,67.60
2018-08-13T07:04:19.060Z,67.70
2018-08-13T07:06:48.133Z,68.40
2018-08-13T07:09:16.457Z,68.50
2018-08-13T07:11:44.765Z,68.40
2018-08-13T07:14:13.061Z,68.90
2018-08-13T07:16:41.402Z,68.50
2018-08-13T07:19:09.701Z,68.80
2018-08-13T07:21:37.992Z,68.80
2018-08-13T07:24:06.382Z,68.40
2018-08-13T07:26:34.625Z,68.40
2018-08-13T07:29:03.005Z,70.30
2018-08-13T07:31:31.288Z,67.90
2018-08-13T07:34:00.286Z,66.00
2018-08-13T07:36:28.572Z,63.50
2018-08-13T07:38:56.921Z,63.00
2018-08-13T07:41:25.164Z,62.50
2018-08-13T07:43:53.446Z,62.30
2018-08-13T07:46:21.868Z,62.30
2018-08-13T07:48:50.213Z,63.10
2018-08-13T07:51:19.378Z,63.10
2018-08-13T07:53:47.756Z,63.40
2018-08-13T07:56:16.063Z,63.50
2018-08-13T07:58:44.382Z,63.40
2018-08-13T08:01:12.779Z,63.70
2018-08-13T08:03:43.197Z,63.80
2018-08-13T08:06:12.378Z,63.60
2018-08-13T08:08:43.061Z,63.70
2018-08-13T08:11:11.969Z,63.90
2018-08-13T08:13:40.533Z,63.50
2018-08-13T08:16:08.877Z,63.30
2018-08-13T08:18:37.586Z,63.90
2018-08-13T08:21:05.954Z,64.10
2018-08-13T08:23:34.212Z,64.40
2018-08-13T08:26:03.411Z,64.70
2018-08-13T08:28:31.649Z,64.80
2018-08-13T08:31:02.706Z,65.00
2018-08-13T08:33:31.031Z,64.70
2018-08-13T08:35:59.342Z,64.60
2018-08-13T08:38:28.829Z,64.30
2018-08-13T08:40:57.229Z,64.00
2018-08-13T08:43:26.669Z,64.50
2018-08-13T08:45:55.395Z,64.60
2018-08-13T08:48:23.692Z,64.30
2018-08-13T08:50:52.005Z,64.60
2018-08-13T08:53:20.438Z,64.70
2018-08-13T08:55:48.840Z,64.90
2018-08-13T08:58:18.994Z,64.90
2018-08-13T09:00:48.439Z,64.90
2018-08-13T09:04:59.914Z,64.80
2018-08-13T09:07:28.928Z,64.80
2018-08-13T09:09:57.214Z,64.70
2018-08-13T09:12:25.625Z,64.10
2018-08-13T09:14:53.957Z,64.10
2018-08-13T09:17:29.490Z,64.10
2018-08-13T09:20:09.195Z,64.00
2018-08-13T09:22:48.820Z,63.80
2018-08-13T09:25:28.510Z,64.10
2018-08-13T09:28:08.164Z,63.50
2018-08-13T09:30:47.830Z,63.80
2018-08-13T09:33:27.622Z,64.10
2018-08-13T09:35:59.759Z,64.10
2018-08-13T09:38:29.329Z,64.10
2018-08-13T09:40:59.075Z,64.10
2018-08-13T09:43:28.351Z,63.90
2018-08-13T09:45:56.712Z,63.60
2018-08-13T09:48:26.317Z,63.40
2018-08-13T09:50:55.830Z,63.40
2018-08-13T09:53:24.231Z,63.70
2018-08-13T09:55:52.545Z,63.60
2018-08-13T09:58:20.841Z,63.90
2018-08-13T10:00:55.395Z,67.60
2018-08-13T10:03:23.782Z,68.50
2018-08-13T10:05:52.695Z,69.40
2018-08-13T10:08:21.135Z,70.10
2018-08-13T10:10:49.814Z,70.40
2018-08-13T10:13:19.152Z,70.50
2018-08-13T10:15:49.077Z,70.80
2018-08-13T10:18:17.506Z,70.60
2018-08-13T10:20:46.815Z,70.70
2018-08-13T10:23:15.628Z,71.90
2018-08-13T10:25:45.248Z,70.90
2018-08-13T10:28:13.761Z,71.50
2018-08-13T10:30:42.622Z,72.00
2018-08-13T10:33:18.820Z,73.00
2018-08-13T10:35:48.835Z,72.40
2018-08-13T10:38:19.765Z,72.10
2018-08-13T10:40:52.373Z,72.40
2018-08-13T10:43:21.819Z,71.80
2018-08-13T10:45:50.305Z,72.60
2018-08-13T10:48:19.549Z,72.20
2018-08-13T10:50:48.871Z,72.50
2018-08-13T10:53:18.618Z,73.50
2018-08-13T10:55:47.227Z,72.50
2018-08-13T10:58:16.953Z,72.50
2018-08-13T11:00:45.339Z,72.00
2018-08-13T11:03:14.515Z,71.30
2018-08-13T11:05:43.008Z,71.20
2018-08-13T11:08:11.329Z,70.80
2018-08-13T11:10:40.057Z,70.90
2018-08-13T11:13:08.423Z,70.30
2018-08-13T11:15:36.698Z,70.50
2018-08-13T11:18:05.159Z,69.10
2018-08-13T11:20:34.187Z,69.10
2018-08-13T11:23:03.163Z,69.20
2018-08-13T11:25:31.547Z,68.10
2018-08-13T11:28:00.329Z,68.40
2018-08-13T11:32:14.394Z,66.00
2018-08-13T11:34:43.264Z,67.00
2018-08-13T11:37:12.162Z,67.00
2018-08-13T11:39:40.429Z,66.50
2018-08-13T11:42:08.741Z,67.30
2018-08-13T11:44:37.059Z,66.90
2018-08-13T11:47:05.928Z,66.90
2018-08-13T11:49:34.409Z,65.90
2018-08-13T11:52:02.718Z,65.10
2018-08-13T11:54:30.977Z,63.10
2018-08-13T11:56:59.973Z,64.20
2018-08-13T11:59:28.299Z,65.50
2018-08-13T12:01:56.624Z,64.60
2018-08-13T12:04:24.964Z,67.30
2018-08-13T12:06:53.232Z,67.80
2018-08-13T12:09:21.537Z,69.50
2018-08-13T12:11:49.908Z,71.20
2018-08-13T12:14:18.163Z,72.30
2018-08-13T12:16:46.426Z,73.10
2018-08-13T12:19:14.796Z,73.90
2018-08-13T12:21:43.120Z,75.50
2018-08-13T12:24:11.389Z,76.40
2018-08-13T12:26:39.744Z,74.60
2018-08-13T12:29:10.861Z,75.40
2018-08-13T12:31:39.749Z,75.70
2018-08-13T12:34:08.148Z,75.00
2018-08-13T12:36:36.925Z,75.10
2018-08-13T12:39:08.667Z,75.10
2018-08-13T12:41:37.151Z,74.30
2018-08-13T12:44:06.116Z,73.90
2018-08-13T12:46:34.690Z,73.60
2018-08-13T12:49:06.432Z,73.40
2018-08-13T12:51:34.681Z,73.70
2018-08-13T12:54:03.001Z,73.70
2018-08-13T12:56:31.301Z,73.50
2018-08-13T12:58:59.629Z,73.30
2018-08-13T13:01:28.493Z,74.10
2018-08-13T13:03:56.861Z,73.70
2018-08-13T13:06:26.348Z,74.00
2018-08-13T13:08:54.762Z,74.80
2018-08-13T13:11:23.039Z,75.20
2018-08-13T13:13:51.376Z,75.80
2018-08-13T13:16:20.493Z,75.00
2018-08-13T13:18:50.155Z,75.00
2018-08-13T13:21:18.403Z,74.70
2018-08-13T13:23:48.801Z,74.20
2018-08-13T13:26:17.197Z,73.60
2018-08-13T13:28:45.592Z,73.80
2018-08-13T13:31:15.422Z,73.10
2018-08-13T13:33:43.926Z,72.40
2018-08-13T13:36:12.985Z,72.90
2018-08-13T13:38:41.318Z,72.80
2018-08-13T13:41:09.637Z,72.50
2018-08-13T13:43:38.011Z,72.90
2018-08-13T13:46:06.867Z,72.70
2018-08-13T13:48:36.373Z,72.50
2018-08-13T13:51:04.634Z,71.90
2018-08-13T13:53:33.002Z,70.20
2018-08-13T13:56:02.309Z,69.50
2018-08-13T13:58:31.938Z,69.50
2018-08-13T14:01:00.194Z,68.40
2018-08-13T14:03:29.445Z,67.40
2018-08-13T14:05:57.717Z,66.00
2018-08-13T14:08:25.973Z,67.10
2018-08-13T14:10:54.276Z,65.80
2018-08-13T14:13:22.516Z,66.80
2018-08-13T14:15:51.600Z,68.00
2018-08-13T14:18:19.912Z,67.00
2018-08-13T14:20:54.826Z,65.00
2018-08-13T14:23:36.396Z,65.00
2018-08-13T14:26:06.060Z,66.10
2018-08-13T14:28:35.137Z,67.00
2018-08-13T14:31:03.934Z,67.20
2018-08-13T14:33:32.407Z,67.00
2018-08-13T14:36:04.638Z,67.00
2018-08-13T14:38:33.912Z,65.80
2018-08-13T14:41:02.434Z,65.80
2018-08-13T14:43:31.042Z,66.50
2018-08-13T14:45:59.319Z,65.70
2018-08-13T14:48:29.941Z,65.00
2018-08-13T14:50:58.223Z,64.50
2018-08-13T14:53:26.430Z,65.30
2018-08-13T14:55:54.684Z,64.10
2018-08-13T14:58:22.941Z,64.10
2018-08-13T15:00:51.266Z,64.30
2018-08-13T15:03:19.605Z,64.30
2018-08-13T15:05:47.981Z,63.90
2018-08-13T15:08:16.226Z,64.80
2018-08-13T15:10:44.591Z,62.50
2018-08-13T15:13:13.910Z,63.30
2018-08-13T15:15:42.330Z,63.70
2018-08-13T15:18:11.333Z,63.40
2018-08-13T15:20:40.259Z,63.90
2018-08-13T15:23:08.573Z,63.80
2018-08-13T15:25:36.932Z,63.80
2018-08-13T15:28:05.269Z,63.10
2018-08-13T15:30:33.638Z,61.60
2018-08-13T15:33:02.079Z,63.10
2018-08-13T15:35:30.589Z,63.60
2018-08-13T15:37:58.936Z,64.00
2018-08-13T15:40:27.261Z,64.30
2018-08-13T15:42:55.607Z,64.30
2018-08-13T15:45:24.577Z,64.20
2018-08-13T15:47:52.895Z,64.50
2018-08-13T15:50:22.421Z,65.40
2018-08-13T15:52:51.004Z,65.10
2018-08-13T15:55:19.460Z,65.30
2018-08-13T15:57:47.920Z,65.50
2018-08-13T16:00:19.528Z,65.50
2018-08-13T16:02:48.108Z,64.50
2018-08-13T16:05:16.482Z,63.30
2018-08-13T16:07:51.918Z,62.30
2018-08-13T16:10:20.160Z,62.70
2018-08-13T16:12:48.563Z,61.80
2018-08-13T16:15:16.883Z,61.90
2018-08-13T16:17:45.183Z,62.10
2018-08-13T16:20:15.681Z,62.70
2018-08-13T16:22:44.890Z,62.90
2018-08-13T16:25:14.561Z,62.90
2018-08-13T16:27:43.356Z,63.30
2018-08-13T16:30:18.302Z,63.00
2018-08-13T16:32:47.775Z,63.40
2018-08-13T16:35:16.924Z,63.50
2018-08-13T16:37:45.609Z,63.80
2018-08-13T16:40:14.651Z,63.80
2018-08-13T16:42:42.996Z,63.60
2018-08-13T16:45:12.532Z,63.70
2018-08-13T16:47:40.812Z,63.80
2018-08-13T16:50:17.903Z,63.60
2018-08-13T16:52:46.275Z,63.90
2018-08-13T16:55:14.636Z,64.10
2018-08-13T16:57:43.517Z,63.10
2018-08-13T17:00:14.384Z,63.30
2018-08-13T17:02:42.623Z,62.80
2018-08-13T17:05:12.404Z,62.90
2018-08-13T17:07:42.262Z,62.80
2018-08-13T17:10:20.609Z,62.80
2018-08-13T17:12:50.670Z,63.20
2018-08-13T17:15:19.135Z,63.20
2018-08-13T17:17:50.560Z,63.70
2018-08-13T17:20:27.350Z,63.40
2018-08-13T17:22:55.874Z,63.10
2018-08-13T17:25:24.402Z,62.90
2018-08-13T17:27:54.275Z,62.50
2018-08-13T17:30:26.275Z,61.70
2018-08-13T17:32:57.448Z,62.70
2018-08-13T17:35:30.310Z,62.60
2018-08-13T17:37:59.302Z,63.10
2018-08-13T17:40:28.228Z,63.10
2018-08-13T17:42:58.154Z,63.10
2018-08-13T17:45:27.065Z,63.00
2018-08-13T17:47:55.366Z,63.90
2018-08-13T17:50:23.876Z,63.20
2018-08-13T17:52:52.181Z,63.40
2018-08-13T17:55:20.461Z,63.50
2018-08-13T17:57:48.875Z,63.80
2018-08-13T18:00:21.648Z,64.10
2018-08-13T18:02:49.976Z,64.20
2018-08-13T18:05:20.440Z,64.40
2018-08-13T18:07:49.061Z,64.70
2018-08-13T18:10:21.783Z,64.70
2018-08-13T18:12:50.061Z,65.00
2018-08-13T18:15:18.444Z,64.90
2018-08-13T18:17:47.172Z,65.40
2018-08-13T18:20:15.448Z,65.70
2018-08-13T18:22:43.790Z,65.80
2018-08-13T18:25:13.608Z,65.80
2018-08-13T18:27:43.155Z,66.10
2018-08-13T18:30:17.390Z,65.90
2018-08-13T18:32:45.754Z,66.30
2018-08-13T18:35:14.390Z,66.20
2018-08-13T18:37:42.791Z,66.40
2018-08-13T18:40:17.005Z,66.70
2018-08-13T18:42:45.777Z,66.80
2018-08-13T18:45:14.399Z,67.10
2018-08-13T18:47:42.901Z,66.90
2018-08-13T18:50:15.595Z,67.20
2018-08-13T18:52:44.519Z,67.30
2018-08-13T18:55:14.476Z,68.20
2018-08-13T18:57:42.761Z,67.50
2018-08-13T19:00:13.479Z,67.30
2018-08-13T19:02:42.399Z,67.40
2018-08-13T19:05:21.460Z,67.80
2018-08-13T19:07:50.399Z,68.20
2018-08-13T19:10:20.479Z,68.20
2018-08-13T19:12:48.877Z,68.10
2018-08-13T19:15:20.120Z,68.00
2018-08-13T19:17:49.481Z,67.80
2018-08-13T19:20:17.821Z,67.80
2018-08-13T19:22:46.163Z,68.10
2018-08-13T19:25:17.578Z,68.10
2018-08-13T19:27:46.041Z,68.10
2018-08-13T19:30:16.610Z,68.00
2018-08-13T19:32:46.086Z,68.30
2018-08-13T19:35:14.317Z,68.50
2018-08-13T19:37:42.586Z,68.50
2018-08-13T19:40:13.707Z,68.40
2018-08-13T19:42:42.169Z,68.30
2018-08-13T19:45:11.679Z,68.20
2018-08-13T19:47:39.920Z,68.40
2018-08-13T19:50:09.760Z,68.50
2018-08-13T19:52:38.400Z,68.70
2018-08-13T19:55:07.564Z,68.70
2018-08-13T19:57:35.833Z,68.60
2018-08-13T20:00:06.918Z,68.50
2018-08-13T20:02:35.270Z,68.90
2018-08-13T20:05:03.556Z,68.60
2018-08-13T20:07:31.804Z,68.90
2018-08-13T20:10:00.039Z,68.60
2018-08-13T20:12:28.321Z,68.60
2018-08-13T20:14:56.574Z,68.90
2018-08-13T20:17:27.565Z,69.10
2018-08-13T20:19:56.448Z,68.90
2018-08-13T20:22:24.902Z,68.90
2018-08-13T20:24:53.141Z,68.90
2018-08-13T20:27:21.421Z,68.70
2018-08-13T20:29:49.670Z,69.00
2018-08-13T20:32:17.925Z,68.80
2018-08-13T20:34:46.162Z,69.10
2018-08-13T20:37:14.542Z,68.80
2018-08-13T20:39:42.798Z,68.90
2018-08-13T20:42:12.028Z,69.00
2018-08-13T20:44:40.273Z,69.10
2018-08-13T20:47:08.579Z,69.10
2018-08-13T20:49:37.265Z,69.20
2018-08-13T20:52:05.508Z,69.30
2018-08-13T20:54:33.772Z,69.30
2018-08-13T20:57:02.391Z,69.60
2018-08-13T20:59:30.637Z,70.90
2018-08-13T21:01:58.893Z,70.90
2018-08-13T21:04:27.348Z,70.60
2018-08-13T21:06:55.693Z,71.00
2018-08-13T21:09:23.994Z,70.60
2018-08-13T21:11:52.257Z,70.70
2018-08-13T21:14:20.517Z,71.10
2018-08-13T21:16:49.540Z,71.30
2018-08-13T21:19:17.890Z,72.70
2018-08-13T21:21:46.233Z,71.80
2018-08-13T21:24:14.494Z,72.40
2018-08-13T21:26:42.808Z,71.70
2018-08-13T21:29:12.030Z,71.70
2018-08-13T21:31:40.335Z,72.70
2018-08-13T21:34:08.596Z,72.40
2018-08-13T21:36:36.831Z,72.40
2018-08-13T21:39:07.079Z,73.10
2018-08-13T21:41:35.330Z,72.50
2018-08-13T21:44:04.621Z,72.40
2018-08-13T21:46:32.913Z,72.90
2018-08-13T21:49:01.172Z,72.60
2018-08-13T21:51:29.572Z,72.80
2018-08-13T21:53:57.904Z,72.70
2018-08-13T21:56:26.575Z,72.70
2018-08-13T21:58:54.859Z,72.80
2018-08-13T22:01:28.568Z,72.90
2018-08-13T22:03:56.992Z,72.80
2018-08-13T22:06:25.293Z,72.90
2018-08-13T22:08:53.656Z,73.20
2018-08-13T22:11:21.955Z,73.10
2018-08-13T22:13:50.256Z,73.40
2018-08-13T22:16:18.548Z,73.20
2018-08-13T22:18:46.840Z,73.10
2018-08-13T22:21:15.159Z,72.80
2018-08-13T22:23:54.781Z,72.80
2018-08-13T22:26:23.052Z,72.70
2018-08-13T22:28:51.288Z,72.70
2018-08-13T22:31:19.532Z,72.60
2018-08-13T22:33:47.786Z,72.50
2018-08-13T22:36:16.154Z,72.90
2018-08-13T22:38:44.347Z,72.70
2018-08-13T22:41:12.597Z,72.80
2018-08-13T22:43:40.825Z,72.70
2018-08-13T22:46:09.270Z,73.00
2018-08-13T22:48:37.556Z,73.10
2018-08-13T22:51:06.085Z,73.30
2018-08-13T22:53:34.350Z,73.40
2018-08-13T22:56:02.619Z,73.60
2018-08-13T22:58:30.837Z,73.20
2018-08-13T23:00:59.093Z,73.50
2018-08-13T23:03:27.342Z,73.30
2018-08-13T23:05:55.582Z,73.30
2018-08-13T23:08:23.856Z,73.70
2018-08-13T23:13:26.658Z,75.10
2018-08-13T23:15:54.913Z,75.10
2018-08-13T23:18:23.131Z,75.00
2018-08-13T23:20:51.361Z,75.00
2018-08-13T23:23:19.592Z,75.70
2018-08-13T23:25:47.889Z,74.90
2018-08-13T23:28:16.110Z,75.50
2018-08-13T23:30:44.345Z,75.10
2018-08-13T23:33:12.684Z,76.20
2018-08-13T23:35:40.929Z,76.00
2018-08-13T23:38:09.177Z,75.80
2018-08-13T23:40:37.423Z,76.10
2018-08-13T23:43:05.675Z,76.10
2018-08-13T23:45:34.002Z,76.00
2018-08-13T23:48:02.259Z,76.80
2018-08-13T23:50:30.519Z,76.20
2018-08-13T23:53:00.357Z,76.70
2018-08-13T23:55:31.365Z,76.80
2018-08-13T23:58:00.153Z,76.90
